sensor_id;sensor_type;location;lat;lon;timestamp;pressure;altitude;pressure_sealevel;temperature;humidity
77216;BME280;66210;53.282;9.864;2023-12-14T00:00:00;100252.16;;;2.88;100.00
77216;BME280;66210;53.282;9.864;2023-12-14T00:02:26;100242.91;;;2.87;100.00
77216;BME280;66210;53.282;9.864;2023-12-14T00:04:53;100246.94;;;2.85;100.00
77216;BME280;66210;53.282;9.864;2023-12-14T00:07:20;100256.41;;;2.89;100.00
77216;BME280;66210;53.282;9.864;2023-12-14T00:09:47;100247.78;;;2.86;100.00
77216;BME280;66210;53.282;9.864;2023-12-14T00:12:13;100264.25;;;2.94;100.00
77216;BME280;66210;53.282;9.864;2023-12-14T00:14:40;100251.72;;;2.94;100.00
77216;BME280;66210;53.282;9.864;2023-12-14T00:17:06;100244.06;;;2.92;100.00
77216;BME280;66210;53.282;9.864;2023-12-14T00:19:33;100263.03;;;3.01;100.00
77216;BME280;66210;53.282;9.864;2023-12-14T00:21:59;100260.53;;;3.01;100.00
77216;BME280;66210;53.282;9.864;2023-12-14T00:24:26;100260.63;;;3.02;100.00
77216;BME280;66210;53.282;9.864;2023-12-14T00:26:53;100265.88;;;3.05;100.00
77216;BME280;66210;53.282;9.864;2023-12-14T00:29:19;100271.84;;;3.07;100.00
77216;BME280;66210;53.282;9.864;2023-12-14T00:31:46;100282.75;;;3.08;100.00
77216;BME280;66210;53.282;9.864;2023-12-14T00:34:12;100291.16;;;3.08;100.00
77216;BME280;66210;53.282;9.864;2023-12-14T00:36:39;100291.16;;;3.08;100.00
77216;BME280;66210;53.282;9.864;2023-12-14T00:41:54;100313.19;;;3.12;100.00
77216;BME280;66210;53.282;9.864;2023-12-14T00:44:20;100319.19;;;3.15;100.00
77216;BME280;66210;53.282;9.864;2023-12-14T00:46:47;100313.09;;;3.11;100.00
77216;BME280;66210;53.282;9.864;2023-12-14T00:49:14;100320.84;;;3.14;100.00
77216;BME280;66210;53.282;9.864;2023-12-14T00:51:41;100323.25;;;3.12;100.00
77216;BME280;66210;53.282;9.864;2023-12-14T00:54:07;100329.22;;;3.15;100.00
77216;BME280;66210;53.282;9.864;2023-12-14T00:56:34;100330.44;;;3.08;100.00
77216;BME280;66210;53.282;9.864;2023-12-14T00:59:01;100335.34;;;3.06;100.00
77216;BME280;66210;53.282;9.864;2023-12-14T01:01:28;100332.84;;;3.06;100.00
77216;BME280;66210;53.282;9.864;2023-12-14T01:03:55;100339.03;;;3.11;100.00
77216;BME280;66210;53.282;9.864;2023-12-14T01:06:21;100346.81;;;3.15;100.00
77216;BME280;66210;53.282;9.864;2023-12-14T01:08:48;100345.94;;;3.14;100.00
77216;BME280;66210;53.282;9.864;2023-12-14T01:11:15;100341.56;;;3.11;100.00
77216;BME280;66210;53.282;9.864;2023-12-14T01:13:42;100359.34;;;3.15;100.00
77216;BME280;66210;53.282;9.864;2023-12-14T01:16:09;100356.94;;;3.16;100.00
77216;BME280;66210;53.282;9.864;2023-12-14T01:18:35;100362.84;;;3.17;100.00
77216;BME280;66210;53.282;9.864;2023-12-14T01:21:02;100366.34;;;3.19;100.00
77216;BME280;66210;53.282;9.864;2023-12-14T01:23:29;100373.97;;;3.20;100.00
77216;BME280;66210;53.282;9.864;2023-12-14T01:25:56;100375.91;;;3.24;100.00
77216;BME280;66210;53.282;9.864;2023-12-14T01:28:23;100376.78;;;3.25;100.00
77216;BME280;66210;53.282;9.864;2023-12-14T01:30:50;100381.72;;;3.23;100.00
77216;BME280;66210;53.282;9.864;2023-12-14T01:33:17;100386.94;;;3.26;100.00
77216;BME280;66210;53.282;9.864;2023-12-14T01:35:43;100384.44;;;3.26;100.00
77216;BME280;66210;53.282;9.864;2023-12-14T01:38:10;100399.59;;;3.28;100.00
77216;BME280;66210;53.282;9.864;2023-12-14T01:40:37;100392.50;;;3.22;100.00
77216;BME280;66210;53.282;9.864;2023-12-14T01:43:10;100397.84;;;3.27;100.00
77216;BME280;66210;53.282;9.864;2023-12-14T01:45:37;100390.78;;;3.21;100.00
77216;BME280;66210;53.282;9.864;2023-12-14T01:48:04;100401.69;;;3.22;100.00
77216;BME280;66210;53.282;9.864;2023-12-14T01:50:31;100411.63;;;3.20;100.00
77216;BME280;66210;53.282;9.864;2023-12-14T01:52:58;100407.38;;;3.19;100.00
77216;BME280;66210;53.282;9.864;2023-12-14T01:55:25;100411.84;;;3.23;100.00
77216;BME280;66210;53.282;9.864;2023-12-14T01:57:53;100415.88;;;3.21;100.00
77216;BME280;66210;53.282;9.864;2023-12-14T02:00:42;100417.72;;;3.24;100.00
77216;BME280;66210;53.282;9.864;2023-12-14T02:03:09;100422.97;;;3.27;100.00
77216;BME280;66210;53.282;9.864;2023-12-14T02:05:36;100420.56;;;3.28;100.00
77216;BME280;66210;53.282;9.864;2023-12-14T02:08:03;100422.22;;;3.28;100.00
77216;BME280;66210;53.282;9.864;2023-12-14T02:10:30;100417.19;;;3.28;100.00
77216;BME280;66210;53.282;9.864;2023-12-14T02:12:57;100423.19;;;3.30;100.00
77216;BME280;66210;53.282;9.864;2023-12-14T02:15:24;100410.19;;;3.24;100.00
77216;BME280;66210;53.282;9.864;2023-12-14T02:17:51;100421.53;;;3.30;100.00
77216;BME280;66210;53.282;9.864;2023-12-14T02:20:18;100417.59;;;3.34;100.00
77216;BME280;66210;53.282;9.864;2023-12-14T02:22:54;100432.88;;;3.37;100.00
77216;BME280;66210;53.282;9.864;2023-12-14T02:25:22;100425.69;;;3.30;100.00
77216;BME280;66210;53.282;9.864;2023-12-14T02:27:49;100429.81;;;3.29;100.00
77216;BME280;66210;53.282;9.864;2023-12-14T02:30:17;100430.50;;;3.27;100.00
77216;BME280;66210;53.282;9.864;2023-12-14T02:32:44;100427.31;;;3.29;100.00
77216;BME280;66210;53.282;9.864;2023-12-14T02:35:11;100432.34;;;3.29;100.00
77216;BME280;66210;53.282;9.864;2023-12-14T02:37:37;100428.22;;;3.30;100.00
77216;BME280;66210;53.282;9.864;2023-12-14T02:40:07;100427.31;;;3.29;100.00
77216;BME280;66210;53.282;9.864;2023-12-14T02:42:34;100426.38;;;3.27;100.00
77216;BME280;66210;53.282;9.864;2023-12-14T02:45:02;100424.47;;;3.25;100.00
77216;BME280;66210;53.282;9.864;2023-12-14T02:47:29;100435.50;;;3.27;100.00
77216;BME280;66210;53.282;9.864;2023-12-14T02:49:56;100440.31;;;3.24;100.00
77216;BME280;66210;53.282;9.864;2023-12-14T02:52:22;100441.97;;;3.23;100.00
77216;BME280;66210;53.282;9.864;2023-12-14T02:54:49;100429.41;;;3.11;100.00
77216;BME280;66210;53.282;9.864;2023-12-14T02:57:15;100439.88;;;3.18;100.00
77216;BME280;66210;53.282;9.864;2023-12-14T02:59:42;100441.66;;;3.19;100.00
77216;BME280;66210;53.282;9.864;2023-12-14T03:02:08;100446.56;;;3.17;100.00
77216;BME280;66210;53.282;9.864;2023-12-14T03:04:39;100447.66;;;3.21;100.00
77216;BME280;66210;53.282;9.864;2023-12-14T03:07:06;100445.78;;;3.18;100.00
77216;BME280;66210;53.282;9.864;2023-12-14T03:09:33;100447.53;;;3.19;100.00
77216;BME280;66210;53.282;9.864;2023-12-14T03:12:00;100445.22;;;3.22;100.00
77216;BME280;66210;53.282;9.864;2023-12-14T03:14:31;100455.72;;;3.28;100.00
77216;BME280;66210;53.282;9.864;2023-12-14T03:16:58;100455.06;;;3.31;100.00
77216;BME280;66210;53.282;9.864;2023-12-14T03:19:25;100469.56;;;3.35;100.00
77216;BME280;66210;53.282;9.864;2023-12-14T03:21:52;100466.19;;;3.35;100.00
77216;BME280;66210;53.282;9.864;2023-12-14T03:24:19;100482.00;;;3.33;100.00
77216;BME280;66210;53.282;9.864;2023-12-14T03:26:45;100480.94;;;3.30;100.00
77216;BME280;66210;53.282;9.864;2023-12-14T03:29:12;100499.16;;;3.39;100.00
77216;BME280;66210;53.282;9.864;2023-12-14T03:31:39;100501.75;;;3.41;100.00
77216;BME280;66210;53.282;9.864;2023-12-14T03:34:06;100501.88;;;3.42;100.00
77216;BME280;66210;53.282;9.864;2023-12-14T03:36:33;100509.09;;;3.38;100.00
77216;BME280;66210;53.282;9.864;2023-12-14T03:38:59;100508.44;;;3.40;99.91
77216;BME280;66210;53.282;9.864;2023-12-14T03:41:26;100519.69;;;3.45;100.00
77216;BME280;66210;53.282;9.864;2023-12-14T03:43:52;100515.97;;;3.40;99.72
77216;BME280;66210;53.282;9.864;2023-12-14T03:46:19;100523.50;;;3.40;99.29
77216;BME280;66210;53.282;9.864;2023-12-14T03:48:46;100523.72;;;3.43;99.98
77216;BME280;66210;53.282;9.864;2023-12-14T03:51:12;100525.47;;;3.44;99.57
77216;BME280;66210;53.282;9.864;2023-12-14T03:53:39;100528.84;;;3.45;99.66
77216;BME280;66210;53.282;9.864;2023-12-14T03:56:06;100529.50;;;3.42;99.02
77216;BME280;66210;53.282;9.864;2023-12-14T03:58:33;100533.00;;;3.44;99.54
77216;BME280;66210;53.282;9.864;2023-12-14T04:01:00;100533.19;;;3.47;100.00
77216;BME280;66210;53.282;9.864;2023-12-14T04:03:27;100535.63;;;3.46;99.95
77216;BME280;66210;53.282;9.864;2023-12-14T04:05:53;100544.34;;;3.51;99.87
77216;BME280;66210;53.282;9.864;2023-12-14T04:08:20;100537.59;;;3.50;100.00
77216;BME280;66210;53.282;9.864;2023-12-14T04:10:47;100539.34;;;3.51;100.00
77216;BME280;66210;53.282;9.864;2023-12-14T04:13:13;100539.44;;;3.52;99.57
77216;BME280;66210;53.282;9.864;2023-12-14T04:15:40;100552.09;;;3.54;100.00
77216;BME280;66210;53.282;9.864;2023-12-14T04:18:07;100557.78;;;3.51;99.90
77216;BME280;66210;53.282;9.864;2023-12-14T04:20:35;100561.06;;;3.50;100.00
77216;BME280;66210;53.282;9.864;2023-12-14T04:23:01;100555.81;;;3.47;100.00
77216;BME280;66210;53.282;9.864;2023-12-14T04:25:28;100568.38;;;3.47;100.00
77216;BME280;66210;53.282;9.864;2023-12-14T04:27:55;100569.25;;;3.48;100.00
77216;BME280;66210;53.282;9.864;2023-12-14T04:30:22;100571.13;;;3.50;100.00
77216;BME280;66210;53.282;9.864;2023-12-14T04:32:48;100565.84;;;3.47;100.00
77216;BME280;66210;53.282;9.864;2023-12-14T04:35:15;100563.47;;;3.49;100.00
77216;BME280;66210;53.282;9.864;2023-12-14T04:37:42;100566.09;;;3.50;99.56
77216;BME280;66210;53.282;9.864;2023-12-14T04:40:08;100569.25;;;3.48;100.00
77216;BME280;66210;53.282;9.864;2023-12-14T04:42:36;100568.50;;;3.49;99.79
77216;BME280;66210;53.282;9.864;2023-12-14T04:45:03;100577.88;;;3.51;99.91
77216;BME280;66210;53.282;9.864;2023-12-14T04:47:30;100577.88;;;3.51;100.00
77216;BME280;66210;53.282;9.864;2023-12-14T04:49:57;100581.38;;;3.53;100.00
77216;BME280;66210;53.282;9.864;2023-12-14T04:52:23;100576.47;;;3.55;100.00
77216;BME280;66210;53.282;9.864;2023-12-14T04:54:50;100593.50;;;3.59;100.00
77216;BME280;66210;53.282;9.864;2023-12-14T04:57:17;100592.72;;;3.60;100.00
77216;BME280;66210;53.282;9.864;2023-12-14T04:59:44;100610.56;;;3.63;100.00
77216;BME280;66210;53.282;9.864;2023-12-14T05:02:11;100615.91;;;3.68;100.00
77216;BME280;66210;53.282;9.864;2023-12-14T05:04:37;100616.78;;;3.68;99.92
77216;BME280;66210;53.282;9.864;2023-12-14T05:07:04;100614.03;;;3.65;99.85
77216;BME280;66210;53.282;9.864;2023-12-14T05:09:30;100613.94;;;3.64;100.00
77216;BME280;66210;53.282;9.864;2023-12-14T05:11:57;100619.72;;;3.63;99.73
77216;BME280;66210;53.282;9.864;2023-12-14T05:14:24;100617.97;;;3.62;99.54
77216;BME280;66210;53.282;9.864;2023-12-14T05:16:51;100626.91;;;3.58;99.89
77216;BME280;66210;53.282;9.864;2023-12-14T05:19:18;100632.72;;;3.57;99.46
77216;BME280;66210;53.282;9.864;2023-12-14T05:21:44;100639.28;;;3.55;99.46
77216;BME280;66210;53.282;9.864;2023-12-14T05:24:11;100639.28;;;3.55;99.40
77216;BME280;66210;53.282;9.864;2023-12-14T05:26:38;100653.81;;;3.59;99.73
77216;BME280;66210;53.282;9.864;2023-12-14T05:29:04;100647.56;;;3.54;99.36
77216;BME280;66210;53.282;9.864;2023-12-14T05:31:31;100650.06;;;3.54;100.00
77216;BME280;66210;53.282;9.864;2023-12-14T05:33:58;100652.91;;;3.59;99.64
77216;BME280;66210;53.282;9.864;2023-12-14T05:36:25;100660.22;;;3.56;99.87
77216;BME280;66210;53.282;9.864;2023-12-14T05:38:52;100665.25;;;3.56;99.60
77216;BME280;66210;53.282;9.864;2023-12-14T05:41:18;100666.03;;;3.54;99.60
77216;BME280;66210;53.282;9.864;2023-12-14T05:43:45;100674.19;;;3.52;99.55
77216;BME280;66210;53.282;9.864;2023-12-14T05:46:20;100669.81;;;3.49;99.18
77216;BME280;66210;53.282;9.864;2023-12-14T05:48:48;100670.72;;;3.50;99.70
77216;BME280;66210;53.282;9.864;2023-12-14T05:51:34;100670.59;;;3.48;99.73
77216;BME280;66210;53.282;9.864;2023-12-14T05:54:00;100681.72;;;3.52;99.49
77216;BME280;66210;53.282;9.864;2023-12-14T05:56:27;100687.00;;;3.55;99.69
77216;BME280;66210;53.282;9.864;2023-12-14T05:58:54;100692.03;;;3.55;100.00
77216;BME280;66210;53.282;9.864;2023-12-14T06:01:23;100699.75;;;3.58;99.56
77216;BME280;66210;53.282;9.864;2023-12-14T06:03:50;100696.50;;;3.59;100.00
77216;BME280;66210;53.282;9.864;2023-12-14T06:06:17;100705.13;;;3.63;99.77
77216;BME280;66210;53.282;9.864;2023-12-14T06:08:43;100711.13;;;3.65;99.88
77216;BME280;66210;53.282;9.864;2023-12-14T06:11:10;100712.78;;;3.64;99.61
77216;BME280;66210;53.282;9.864;2023-12-14T06:13:37;100712.91;;;3.66;99.91
77216;BME280;66210;53.282;9.864;2023-12-14T06:16:04;100714.53;;;3.65;99.65
77216;BME280;66210;53.282;9.864;2023-12-14T06:18:31;100716.41;;;3.68;100.00
77216;BME280;66210;53.282;9.864;2023-12-14T06:20:58;100719.88;;;3.70;100.00
77216;BME280;66210;53.282;9.864;2023-12-14T06:23:24;100714.97;;;3.71;99.73
77216;BME280;66210;53.282;9.864;2023-12-14T06:25:52;100714.22;;;3.72;99.99
77216;BME280;66210;53.282;9.864;2023-12-14T06:28:18;100711.59;;;3.71;99.90
77216;BME280;66210;53.282;9.864;2023-12-14T06:30:45;100723.38;;;3.72;99.88
77216;BME280;66210;53.282;9.864;2023-12-14T06:33:13;100725.03;;;3.71;100.00
77216;BME280;66210;53.282;9.864;2023-12-14T06:35:40;100736.06;;;3.73;100.00
77216;BME280;66210;53.282;9.864;2023-12-14T06:38:07;100734.34;;;3.72;99.86
77216;BME280;66210;53.282;9.864;2023-12-14T06:43:14;100752.66;;;3.71;100.00
77216;BME280;66210;53.282;9.864;2023-12-14T06:45:41;100764.03;;;3.78;99.66
77216;BME280;66210;53.282;9.864;2023-12-14T06:48:08;100753.44;;;3.70;100.00
77216;BME280;66210;53.282;9.864;2023-12-14T06:50:35;100764.38;;;3.71;99.76
77216;BME280;66210;53.282;9.864;2023-12-14T06:53:02;100756.94;;;3.72;99.42
77216;BME280;66210;53.282;9.864;2023-12-14T06:55:29;100763.59;;;3.72;100.00
77216;BME280;66210;53.282;9.864;2023-12-14T06:57:56;100773.09;;;3.76;99.42
77216;BME280;66210;53.282;9.864;2023-12-14T07:00:23;100776.47;;;3.77;100.00
77216;BME280;66210;53.282;9.864;2023-12-14T07:02:50;100748.09;;;3.66;99.76
77216;BME280;66210;53.282;9.864;2023-12-14T07:05:17;100749.47;;;3.62;99.95
77216;BME280;66210;53.282;9.864;2023-12-14T07:07:47;100782.16;;;3.74;99.66
77216;BME280;66210;53.282;9.864;2023-12-14T07:10:13;100789.81;;;3.75;100.00
77216;BME280;66210;53.282;9.864;2023-12-14T07:12:41;100787.84;;;3.71;99.50
77216;BME280;66210;53.282;9.864;2023-12-14T07:15:08;100791.88;;;3.69;100.00
77216;BME280;66210;53.282;9.864;2023-12-14T07:17:35;100795.25;;;3.70;99.82
77216;BME280;66210;53.282;9.864;2023-12-14T07:20:02;100794.63;;;3.72;99.91
77216;BME280;66210;53.282;9.864;2023-12-14T07:22:29;100799.53;;;3.71;99.96
77216;BME280;66210;53.282;9.864;2023-12-14T07:24:56;100804.56;;;3.71;99.84
77216;BME280;66210;53.282;9.864;2023-12-14T07:27:26;100806.56;;;3.75;99.71
77216;BME280;66210;53.282;9.864;2023-12-14T07:29:52;100785.84;;;3.56;99.47
77216;BME280;66210;53.282;9.864;2023-12-14T07:32:19;100791.97;;;3.59;99.71
77216;BME280;66210;53.282;9.864;2023-12-14T07:34:46;100812.84;;;3.70;99.76
77216;BME280;66210;53.282;9.864;2023-12-14T07:37:13;100820.63;;;3.73;100.00
77216;BME280;66210;53.282;9.864;2023-12-14T07:39:40;100820.50;;;3.71;99.91
77216;BME280;66210;53.282;9.864;2023-12-14T07:42:07;100825.78;;;3.74;100.00
77216;BME280;66210;53.282;9.864;2023-12-14T07:44:34;100823.81;;;3.70;99.71
77216;BME280;66210;53.282;9.864;2023-12-14T07:47:02;100847.41;;;3.72;99.63
77216;BME280;66210;53.282;9.864;2023-12-14T07:49:29;100839.19;;;3.63;99.89
77216;BME280;66210;53.282;9.864;2023-12-14T07:51:56;100853.81;;;3.69;99.89
77216;BME280;66210;53.282;9.864;2023-12-14T07:54:22;100864.09;;;3.72;99.97
77216;BME280;66210;53.282;9.864;2023-12-14T07:56:49;100858.84;;;3.69;100.00
77216;BME280;66210;53.282;9.864;2023-12-14T07:59:16;100874.28;;;3.73;99.82
77216;BME280;66210;53.282;9.864;2023-12-14T08:01:43;100875.13;;;3.74;100.00
77216;BME280;66210;53.282;9.864;2023-12-14T08:04:09;100877.91;;;3.77;99.90
77216;BME280;66210;53.282;9.864;2023-12-14T08:06:38;100887.19;;;3.78;99.60
77216;BME280;66210;53.282;9.864;2023-12-14T08:09:08;100888.06;;;3.79;99.72
77216;BME280;66210;53.282;9.864;2023-12-14T08:11:35;100895.94;;;3.83;100.00
77216;BME280;66210;53.282;9.864;2023-12-14T08:14:02;100873.16;;;3.70;100.00
77216;BME280;66210;53.282;9.864;2023-12-14T08:16:30;100886.38;;;3.67;100.00
77216;BME280;66210;53.282;9.864;2023-12-14T08:18:57;100910.28;;;3.84;99.62
77216;BME280;66210;53.282;9.864;2023-12-14T08:21:23;100893.50;;;3.73;99.73
77216;BME280;66210;53.282;9.864;2023-12-14T08:23:50;100899.41;;;3.73;100.00
77216;BME280;66210;53.282;9.864;2023-12-14T08:26:17;100911.13;;;3.85;99.76
77216;BME280;66210;53.282;9.864;2023-12-14T08:28:44;100908.63;;;3.85;100.00
77216;BME280;66210;53.282;9.864;2023-12-14T08:31:11;100913.78;;;3.86;100.00
77216;BME280;66210;53.282;9.864;2023-12-14T08:33:41;100932.72;;;3.93;99.48
77216;BME280;66210;53.282;9.864;2023-12-14T08:36:17;100931.84;;;3.92;99.94
77216;BME280;66210;53.282;9.864;2023-12-14T08:38:44;100940.47;;;3.96;99.87
77216;BME280;66210;53.282;9.864;2023-12-14T08:41:14;100938.84;;;3.96;100.00
77216;BME280;66210;53.282;9.864;2023-12-14T08:43:42;100942.25;;;3.97;99.78
77216;BME280;66210;53.282;9.864;2023-12-14T08:46:09;100902.13;;;3.77;99.69
77216;BME280;66210;53.282;9.864;2023-12-14T08:48:36;100924.84;;;3.88;99.97
77216;BME280;66210;53.282;9.864;2023-12-14T08:51:04;100928.56;;;3.93;99.79
77216;BME280;66210;53.282;9.864;2023-12-14T08:53:32;100932.72;;;3.93;99.74
77216;BME280;66210;53.282;9.864;2023-12-14T08:55:59;100911.66;;;3.81;100.00
77216;BME280;66210;53.282;9.864;2023-12-14T08:58:26;100930.94;;;3.92;99.49
77216;BME280;66210;53.282;9.864;2023-12-14T09:00:53;100915.94;;;3.82;99.28
77216;BME280;66210;53.282;9.864;2023-12-14T09:03:20;100922.72;;;3.83;99.76
77216;BME280;66210;53.282;9.864;2023-12-14T09:05:48;100962.06;;;4.04;99.54
77216;BME280;66210;53.282;9.864;2023-12-14T09:08:15;100933.75;;;3.85;99.46
77216;BME280;66210;53.282;9.864;2023-12-14T09:10:42;100929.38;;;3.82;99.55
77216;BME280;66210;53.282;9.864;2023-12-14T09:13:09;100982.22;;;4.16;99.73
77216;BME280;66210;53.282;9.864;2023-12-14T09:15:36;100956.91;;;4.03;99.81
77216;BME280;66210;53.282;9.864;2023-12-14T09:18:03;100959.28;;;4.01;99.90
77216;BME280;66210;53.282;9.864;2023-12-14T09:20:30;100954.25;;;4.01;100.00
77216;BME280;66210;53.282;9.864;2023-12-14T09:22:58;100955.03;;;4.00;99.83
77216;BME280;66210;53.282;9.864;2023-12-14T09:25:24;100973.09;;;4.06;99.48
77216;BME280;66210;53.282;9.864;2023-12-14T09:27:51;100964.22;;;4.00;99.94
77216;BME280;66210;53.282;9.864;2023-12-14T09:30:18;100992.91;;;4.13;99.87
77216;BME280;66210;53.282;9.864;2023-12-14T09:32:45;100965.31;;;4.03;99.68
77216;BME280;66210;53.282;9.864;2023-12-14T09:35:12;101002.66;;;4.21;99.60
77216;BME280;66210;53.282;9.864;2023-12-14T09:37:39;101001.69;;;4.19;99.79
77216;BME280;66210;53.282;9.864;2023-12-14T09:40:09;101015.72;;;4.27;99.61
77216;BME280;66210;53.282;9.864;2023-12-14T09:42:38;101016.47;;;4.26;98.82
77216;BME280;66210;53.282;9.864;2023-12-14T09:45:09;101012.22;;;4.25;99.14
77216;BME280;66210;53.282;9.864;2023-12-14T09:47:37;101015.72;;;4.27;98.95
77216;BME280;66210;53.282;9.864;2023-12-14T09:50:05;101010.56;;;4.25;99.60
77216;BME280;66210;53.282;9.864;2023-12-14T09:52:32;100966.97;;;4.03;98.87
77216;BME280;66210;53.282;9.864;2023-12-14T09:55:00;101005.78;;;4.28;99.40
77216;BME280;66210;53.282;9.864;2023-12-14T09:57:27;60394.31;;;-145.67;100.00
77216;BME280;66210;53.282;9.864;2023-12-14T09:59:54;60394.31;;;-145.67;100.00
77216;BME280;66210;53.282;9.864;2023-12-14T10:02:25;60394.31;;;-145.67;100.00
77216;BME280;66210;53.282;9.864;2023-12-14T10:04:53;60394.31;;;-145.67;100.00
77216;BME280;66210;53.282;9.864;2023-12-14T10:07:23;60394.31;;;-145.67;100.00
77216;BME280;66210;53.282;9.864;2023-12-14T10:09:50;60394.31;;;-145.67;100.00
77216;BME280;66210;53.282;9.864;2023-12-14T10:12:17;60394.31;;;-145.67;100.00
77216;BME280;66210;53.282;9.864;2023-12-14T10:14:44;60394.31;;;-145.67;100.00
77216;BME280;66210;53.282;9.864;2023-12-14T10:17:21;60394.31;;;-145.67;100.00
77216;BME280;66210;53.282;9.864;2023-12-14T10:19:48;60394.31;;;-145.67;100.00
77216;BME280;66210;53.282;9.864;2023-12-14T10:22:17;60394.31;;;-145.67;100.00
77216;BME280;66210;53.282;9.864;2023-12-14T10:24:46;60394.31;;;-145.67;100.00
77216;BME280;66210;53.282;9.864;2023-12-14T10:27:16;60394.31;;;-145.67;100.00
77216;BME280;66210;53.282;9.864;2023-12-14T10:29:46;60394.31;;;-145.67;100.00
77216;BME280;66210;53.282;9.864;2023-12-14T10:32:13;60394.31;;;-145.67;100.00
77216;BME280;66210;53.282;9.864;2023-12-14T10:34:40;60394.31;;;-145.67;100.00
77216;BME280;66210;53.282;9.864;2023-12-14T10:37:09;60394.31;;;-145.67;100.00
77216;BME280;66210;53.282;9.864;2023-12-14T10:39:42;60394.31;;;-145.67;100.00
77216;BME280;66210;53.282;9.864;2023-12-14T10:42:09;60394.31;;;-145.67;100.00
77216;BME280;66210;53.282;9.864;2023-12-14T10:44:48;60394.31;;;-145.67;100.00
77216;BME280;66210;53.282;9.864;2023-12-14T10:47:39;60394.31;;;-145.67;100.00
77216;BME280;66210;53.282;9.864;2023-12-14T10:50:11;60394.31;;;-145.67;100.00
77216;BME280;66210;53.282;9.864;2023-12-14T10:52:39;60394.31;;;-145.67;100.00
77216;BME280;66210;53.282;9.864;2023-12-14T10:55:09;60394.31;;;-145.67;100.00
77216;BME280;66210;53.282;9.864;2023-12-14T10:57:38;60394.31;;;-145.67;100.00
77216;BME280;66210;53.282;9.864;2023-12-14T11:00:10;60394.31;;;-145.67;100.00
77216;BME280;66210;53.282;9.864;2023-12-14T11:02:45;60394.31;;;-145.67;100.00
77216;BME280;66210;53.282;9.864;2023-12-14T11:05:14;60394.31;;;-145.67;100.00
77216;BME280;66210;53.282;9.864;2023-12-14T11:07:52;60394.31;;;-145.67;100.00
77216;BME280;66210;53.282;9.864;2023-12-14T11:10:22;60394.31;;;-145.67;100.00
77216;BME280;66210;53.282;9.864;2023-12-14T11:13:03;60394.31;;;-145.67;100.00
77216;BME280;66210;53.282;9.864;2023-12-14T11:15:35;60394.31;;;-145.67;100.00
77216;BME280;66210;53.282;9.864;2023-12-14T11:18:25;60394.31;;;-145.67;100.00
77216;BME280;66210;53.282;9.864;2023-12-14T11:20:57;60394.31;;;-145.67;100.00
77216;BME280;66210;53.282;9.864;2023-12-14T11:23:26;60394.31;;;-145.67;100.00
77216;BME280;66210;53.282;9.864;2023-12-14T11:25:56;60394.31;;;-145.67;100.00
77216;BME280;66210;53.282;9.864;2023-12-14T11:28:26;60394.31;;;-145.67;100.00
77216;BME280;66210;53.282;9.864;2023-12-14T11:30:55;60394.31;;;-145.67;100.00
77216;BME280;66210;53.282;9.864;2023-12-14T11:33:23;60394.31;;;-145.67;100.00
77216;BME280;66210;53.282;9.864;2023-12-14T11:35:51;60394.31;;;-145.67;100.00
77216;BME280;66210;53.282;9.864;2023-12-14T11:38:20;60394.31;;;-145.67;100.00
77216;BME280;66210;53.282;9.864;2023-12-14T11:40:49;60394.31;;;-145.67;100.00
77216;BME280;66210;53.282;9.864;2023-12-14T11:43:17;60394.31;;;-145.67;100.00
77216;BME280;66210;53.282;9.864;2023-12-14T11:45:47;60394.31;;;-145.67;100.00
77216;BME280;66210;53.282;9.864;2023-12-14T11:48:14;60394.31;;;-145.67;100.00
77216;BME280;66210;53.282;9.864;2023-12-14T11:50:42;60394.31;;;-145.67;100.00
77216;BME280;66210;53.282;9.864;2023-12-14T11:53:10;60394.31;;;-145.67;100.00
77216;BME280;66210;53.282;9.864;2023-12-14T11:55:40;60394.31;;;-145.67;100.00
77216;BME280;66210;53.282;9.864;2023-12-14T11:58:07;60394.31;;;-145.67;100.00
77216;BME280;66210;53.282;9.864;2023-12-14T12:00:34;60394.31;;;-145.67;100.00
77216;BME280;66210;53.282;9.864;2023-12-14T12:03:14;60394.31;;;-145.67;100.00
77216;BME280;66210;53.282;9.864;2023-12-14T12:05:47;60394.31;;;-145.67;100.00
77216;BME280;66210;53.282;9.864;2023-12-14T12:08:16;60394.31;;;-145.67;100.00
77216;BME280;66210;53.282;9.864;2023-12-14T12:10:46;60394.31;;;-145.67;100.00
77216;BME280;66210;53.282;9.864;2023-12-14T12:13:18;60394.31;;;-145.67;100.00
77216;BME280;66210;53.282;9.864;2023-12-14T12:16:30;60394.31;;;-145.67;100.00
77216;BME280;66210;53.282;9.864;2023-12-14T12:18:57;60394.31;;;-145.67;100.00
77216;BME280;66210;53.282;9.864;2023-12-14T12:21:24;60394.31;;;-145.67;100.00
77216;BME280;66210;53.282;9.864;2023-12-14T12:23:51;60394.31;;;-145.67;100.00
77216;BME280;66210;53.282;9.864;2023-12-14T12:26:18;60394.31;;;-145.67;100.00
77216;BME280;66210;53.282;9.864;2023-12-14T12:28:45;60394.31;;;-145.67;100.00
77216;BME280;66210;53.282;9.864;2023-12-14T12:31:14;60394.31;;;-145.67;100.00
77216;BME280;66210;53.282;9.864;2023-12-14T12:33:41;60394.31;;;-145.67;100.00
77216;BME280;66210;53.282;9.864;2023-12-14T12:36:08;60394.31;;;-145.67;100.00
77216;BME280;66210;53.282;9.864;2023-12-14T12:38:35;60394.31;;;-145.67;100.00
77216;BME280;66210;53.282;9.864;2023-12-14T12:41:06;60394.31;;;-145.67;100.00
77216;BME280;66210;53.282;9.864;2023-12-14T12:43:33;60394.31;;;-145.67;100.00
77216;BME280;66210;53.282;9.864;2023-12-14T12:45:59;60394.31;;;-145.67;100.00
77216;BME280;66210;53.282;9.864;2023-12-14T12:48:26;60394.31;;;-145.67;100.00
77216;BME280;66210;53.282;9.864;2023-12-14T12:50:54;60394.31;;;-145.67;100.00
77216;BME280;66210;53.282;9.864;2023-12-14T12:53:20;60394.31;;;-145.67;100.00
77216;BME280;66210;53.282;9.864;2023-12-14T12:55:47;60394.31;;;-145.67;100.00